AirNav   Pilot Hours Calculator
 
 1452 users online  

2FD3 Bayfront Health - St Petersburg Heliport
St Petersburg, Florida, USA

GOING TO ST PETERSBURG?


FAA INFORMATION EFFECTIVE 07 NOVEMBER 2019

Location

FAA Identifier: 2FD3
Lat/Long: 27-45-46.9000N 082-38-32.2800W
27-45.781667N 082-38.538000W
27.7630278,-82.6423000
(estimated)
Elevation: 128 ft. / 39 m (estimated)
Variation: 02W (1985)
Time zone: UTC -5 (UTC -4 during Daylight Saving Time)
Zip code: 33701

Heliport Operations

Heliport use: Private use, MEDICAL.
Activation date: 08/1987
Control tower: no
ARTCC: MIAMI CENTER
FSS: SAINT PETERSBURG FLIGHT SERVICE STATION
Attendance: CONTINUOUS
Wind indicator: lighted
Segmented circle: no
Lights: PERIMETER LGTS SS-SR. REQUEST FLOOD LGTS H1 & H2 - 463.050.

Heliport Communications

WX ASOS at SPG (0.8 nm E): 118.875 (727-821-4334)
WX ASOS at PIE (9 nm N): PHONE 727-531-3456
WX AWOS-3 at TPF (14 nm NE): 118.925 (813-251-6824)
WX ASOS at TPA (14 nm NE): PHONE 813-873-7228
WX AWOS-3P at CLW (14 nm NW): 119.225 (727-449-2184)

Nearby radio navigation aids

VOR radial/distance  VOR name  Freq  Var
PIEr171/9.0ST PETERSBURG VORTAC116.4005W
SRQr354/21.8SARASOTA VOR/DME117.0005W
LALr247/35.9LAKELAND VORTAC116.0001E

 
NDB name  Hdg/Dist  Freq  Var  ID
CAPOK172/14.336005WPI .--. ..

Heliport Services

Runway Information

Helipad H1

Dimensions: 28 x 28 ft. / 9 x 9 m
Surface: concrete
ROOFTOP.
Runway edge lights: PERI
AND FLOOD LGTS.
Latitude: 27-45.799167N
Longitude: 082-38.538833W
Elevation: 128.0 ft.
Traffic pattern: leftleft

Helipad H2

Dimensions: 28 x 32 ft. / 9 x 10 m
Surface: concrete
ROOFTOP.
Runway edge lights: PERI
AND FLOOD LGTS.
Latitude: 27-45.764167N
Longitude: 082-38.537000W
Elevation: 128.0 ft.
Traffic pattern: leftleft

Heliport Ownership and Management from official FAA records

Ownership: Privately-owned
Owner: BAYFRONT HEALTH - ST. PETERSBURG
701 6TH ST. SOUTH
ST. PETERSBURG, FL 33701
Phone (727) 823-1234
Manager: BILL CHRISTIE
701 6TH ST. SOUTH
ST. PETERSBURG, FL 33701
Phone (727) 823-1234
ADDNL CTC: PAUL CRUMP

Additional Remarks

FOR CD CTC TAMPA APCH AT 813-878-2528
A52-H1 15' BLDG 53' S, 27' BLDG 76' N, AND MISC BLDGS 6000' NE.

Instrument Procedures

There are no published instrument procedures at 2FD3.

Some nearby airports with instrument procedures:

KSPG - Albert Whitted Airport (1 nm E)
KMCF - MacDill Air Force Base (8 nm NE)
KPIE - St Pete-Clearwater International Airport (9 nm N)
KTPF - Peter O Knight Airport (14 nm NE)
KTPA - Tampa International Airport (14 nm NE)
KCLW - Clearwater Air Park (14 nm NW)
 
Loc | Ops | Rwys | IFR | FBO | Links
Com | Nav | Svcs | Stats | Notes


 
Area around 2FD3 (Bayfront Health - St Petersburg Heliport)
 
Road maps at: MapQuest Bing Google
 
Aerial photo
No photo
 
Sectional chart

 
Airport distance calculator
Flying to Bayfront Health - St Petersburg Heliport? Find the distance to fly.

From to 2FD3

Sunrise and sunset
Times for 12-Nov-2019
 Local
(UTC-5)
 Zulu
(UTC)
Morning civil twilight06:2611:26
Sunrise06:5111:51
Sunset17:3922:39
Evening civil twilight18:0423:04

Current date and time
Zulu (UTC)  12-Nov-2019 16:59:04
Local (UTC-5)  12-Nov-2019 11:59:04
 
METAR
KSPG 121653Z 22007KT 10SM FEW029 26/20 A2994 RMK AO2 SLP139 T02610200
KMCF 
8nm NE 
121556Z AUTO 17006KT 10SM CLR 25/19 A2997 RMK AO2 SLP152 T02510192 FZRANO $
KPIE 
9nm N 
121653Z 24007KT 10SM CLR 28/18 A2996 RMK AO2 SLP144 T02830178
KTPA 
14nm NE 
121653Z 18008KT 10SM FEW030 FEW250 27/19 A2996 RMK AO2 SLP146 T02670194
KTPF 
14nm NE 
121635Z AUTO 20004KT 10SM OVC110 26/20 A2997 RMK AO2
KCLW 
14nm NW 
121635Z AUTO 27008KT 10SM CLR 26/17 A2996 RMK AO2
TAF
KMCF 
8nm NE 
120900Z 1209/1315 VRB06KT 9999 CLR FEW026 QNH2994INS BECMG 1220/1221 27010G15KT 9999 SCT030 QNH2989INS BECMG 1223/1224 33012KT 9000 BR FEW011 QNH2994INS BECMG 1302/1303 35020KT 8000 BR BKN011 QNH2998INS BECMG 1305/1306 36020KT 9999 NSW FEW011 QNH3000INS BECMG 1311/1312 04020G25KT 9999 OVC020 QNH3006INS TX28/1217Z TN15/1308Z
KPIE 
9nm N 
121121Z 1212/1312 VRB03KT P6SM SCT035 SCT200 TEMPO 1212/1213 2SM BR FEW010 FM121600 22004KT P6SM FEW200 FM121800 26006KT P6SM VCSH FEW040 SCT200 FM122200 31009KT P6SM SCT030 BKN100 FM130000 36012G18KT P6SM OVC015
KTPA 
14nm NE 
121503Z 1215/1318 20006KT P6SM FEW040 SCT200 FM121800 28008KT P6SM VCSH FEW035 SCT200 FM122300 32008KT P6SM SCT025 BKN100 FM130000 36010G15KT P6SM OVC015 FM131400 03011KT P6SM BKN025
NOTAMs
Click for the latest NOTAMs
NOTAMs are issued by the DoD/FAA and will open in a separate window not controlled by AirNav.

 

 
 

Would you like to see your business listed on this page?

 If your business provides an interesting product or service to pilots, flight crews, aircraft, or users of the Bayfront Health - St Petersburg Heliport, you should consider listing it here.  To start the listing process, click on the button below
 
Add a business
 

Other Pages about Bayfront Health - St Petersburg Heliport

Update a link
 
Copyright © AirNav, LLC. All rights reserved. Privacy Policy  Contact